createdAt,value
2022-08-26T00:01:51.965Z,23.98
2022-08-26T00:06:59.230Z,23.94
2022-08-26T00:12:06.192Z,23.90
2022-08-26T00:17:13.981Z,23.86
2022-08-26T00:22:21.550Z,23.81
2022-08-26T00:27:27.540Z,23.75
2022-08-26T00:32:34.349Z,23.68
2022-08-26T00:37:41.612Z,23.62
2022-08-26T00:42:49.045Z,23.58
2022-08-26T00:47:55.899Z,23.53
2022-08-26T00:53:03.559Z,23.50
2022-08-26T00:58:10.316Z,23.47
2022-08-26T01:03:17.095Z,23.44
2022-08-26T01:08:24.466Z,23.43
2022-08-26T01:13:31.225Z,23.43
2022-08-26T01:18:38.744Z,23.44
2022-08-26T01:23:45.529Z,23.45
2022-08-26T01:28:52.763Z,23.47
2022-08-26T01:34:00.249Z,23.47
2022-08-26T01:39:07.169Z,23.47
2022-08-26T01:44:14.068Z,23.46
2022-08-26T01:49:21.455Z,23.41
2022-08-26T01:54:28.263Z,23.37
2022-08-26T01:59:35.877Z,23.37
2022-08-26T02:04:42.674Z,23.37
2022-08-26T02:09:49.419Z,23.35
2022-08-26T02:14:56.962Z,23.32
2022-08-26T02:20:03.773Z,23.31
2022-08-26T02:25:11.119Z,23.30
2022-08-26T02:30:17.955Z,23.27
2022-08-26T02:35:26.292Z,23.24
2022-08-26T02:40:32.063Z,23.19
2022-08-26T02:45:39.267Z,23.16
2022-08-26T02:50:46.687Z,23.14
2022-08-26T02:55:53.384Z,23.11
2022-08-26T03:01:01.527Z,23.08
2022-08-26T03:06:08.924Z,23.06
2022-08-26T03:11:14.583Z,23.03
2022-08-26T03:16:21.932Z,22.99
2022-08-26T03:21:29.554Z,22.98
2022-08-26T03:26:36.532Z,23.00
2022-08-26T03:31:43.295Z,23.06
2022-08-26T03:36:50.421Z,23.12
2022-08-26T03:41:57.653Z,23.13
2022-08-26T03:47:04.430Z,23.12
2022-08-26T03:52:11.883Z,23.11
2022-08-26T03:57:18.836Z,23.09
2022-08-26T04:02:25.878Z,23.05
2022-08-26T04:07:33.238Z,22.99
2022-08-26T04:12:40.297Z,22.96
2022-08-26T04:17:47.300Z,22.94
2022-08-26T04:22:54.166Z,22.93
2022-08-26T04:28:01.650Z,22.95
2022-08-26T04:33:13.063Z,22.97
2022-08-26T04:38:15.826Z,22.99
2022-08-26T04:43:22.833Z,23.01
2022-08-26T04:48:29.977Z,23.02
2022-08-26T04:53:37.113Z,23.06
2022-08-26T04:58:44.020Z,23.12
2022-08-26T05:03:51.466Z,23.24
2022-08-26T05:08:58.348Z,23.44
2022-08-26T05:14:05.185Z,23.70
2022-08-26T05:19:12.839Z,23.91
2022-08-26T05:24:19.938Z,24.06
2022-08-26T05:29:26.859Z,24.19
2022-08-26T05:34:33.728Z,24.28
2022-08-26T05:39:41.264Z,24.36
2022-08-26T05:44:55.620Z,24.47
2022-08-26T05:49:55.239Z,24.67
2022-08-26T05:55:02.363Z,24.89
2022-08-26T07:32:17.748Z,36.18
2022-08-26T07:37:25.165Z,36.78
2022-08-26T07:42:31.926Z,37.45
2022-08-26T07:52:46.189Z,38.64
2022-08-26T07:57:53.496Z,39.10
2022-08-26T08:03:00.814Z,39.58
2022-08-26T08:08:21.864Z,40.00
2022-08-26T08:18:22.280Z,40.64
2022-08-26T08:28:36.210Z,40.61
2022-08-26T08:33:43.594Z,40.73
2022-08-26T08:49:04.695Z,41.51
2022-08-26T08:54:12.060Z,41.65
2022-08-26T08:59:19.946Z,41.41
2022-08-26T09:04:26.521Z,40.71
2022-08-26T09:09:33.557Z,40.33
2022-08-26T09:14:41.052Z,39.72
2022-08-26T09:19:48.116Z,39.22
2022-08-26T09:24:54.960Z,39.22
2022-08-26T09:30:02.591Z,39.43
2022-08-26T09:30:02.790Z,39.43
2022-08-26T09:35:09.600Z,39.63
2022-08-26T09:40:18.203Z,39.88
2022-08-26T09:45:24.925Z,40.23
2022-08-26T09:50:30.959Z,40.22
2022-08-26T09:55:37.975Z,40.06
2022-08-26T10:00:52.823Z,40.10
2022-08-26T10:05:52.263Z,40.45
2022-08-26T10:11:06.090Z,41.00
2022-08-26T10:21:15.525Z,42.48
2022-08-26T10:26:20.845Z,42.55
2022-08-26T10:31:28.395Z,42.34
2022-08-26T10:41:42.398Z,42.99
2022-08-26T10:46:49.447Z,43.28
2022-08-26T10:51:57.045Z,42.97
2022-08-26T10:57:04.169Z,42.23
2022-08-26T11:02:11.165Z,41.70
2022-08-26T11:07:18.509Z,41.42
2022-08-26T11:12:25.475Z,41.12
2022-08-26T11:17:32.331Z,40.97
2022-08-26T11:22:47.625Z,40.43
2022-08-26T11:27:46.611Z,39.45
2022-08-26T11:32:54.084Z,38.59
2022-08-26T11:38:00.981Z,38.14
2022-08-26T11:43:08.054Z,37.91
2022-08-26T11:53:22.964Z,37.13
2022-08-26T11:58:29.609Z,36.06
2022-08-26T12:08:44.113Z,34.12
2022-08-26T12:13:50.934Z,33.22
2022-08-26T14:11:39.053Z,23.57
2022-08-26T14:16:59.098Z,23.48
2022-08-26T16:29:47.663Z,22.39
2022-08-26T16:34:56.741Z,22.33
2022-08-26T16:40:00.891Z,22.27
2022-08-26T16:45:07.703Z,22.22
2022-08-26T16:50:15.029Z,22.17
2022-08-26T16:55:21.997Z,22.15
2022-08-26T17:00:28.959Z,22.13
2022-08-26T17:05:36.522Z,22.13
2022-08-26T17:15:50.669Z,22.07
2022-08-26T17:20:57.428Z,22.08
2022-08-26T17:26:04.712Z,22.09
2022-08-26T17:31:11.762Z,22.09
2022-08-26T17:36:19.119Z,22.09
2022-08-26T17:41:25.978Z,22.11
2022-08-26T17:46:35.321Z,22.11
2022-08-26T17:51:40.486Z,22.11
2022-08-26T17:56:47.725Z,22.10
2022-08-26T18:01:54.328Z,22.09
2022-08-26T18:07:01.290Z,22.10
2022-08-26T18:12:08.996Z,22.08
2022-08-26T18:17:15.604Z,22.07
2022-08-26T18:22:22.407Z,22.06
2022-08-26T18:27:29.695Z,22.05
2022-08-26T18:32:37.098Z,22.03
2022-08-26T18:37:43.872Z,21.99
2022-08-26T18:42:54.029Z,21.94
2022-08-26T18:47:57.936Z,21.92
2022-08-26T18:53:05.427Z,21.91
2022-08-26T18:58:12.341Z,21.88
2022-08-26T19:03:19.634Z,21.85
2022-08-26T19:08:26.491Z,21.82
2022-08-26T19:13:34.037Z,21.81
2022-08-26T19:18:40.824Z,21.82
2022-08-26T19:23:47.795Z,21.84
2022-08-26T19:34:02.069Z,21.92
2022-08-26T19:39:09.340Z,21.95
2022-08-26T19:44:16.146Z,21.99
2022-08-26T19:49:24.677Z,22.01
2022-08-26T19:54:30.634Z,22.02
2022-08-26T19:59:37.634Z,22.03
2022-08-26T20:04:44.757Z,22.05
2022-08-26T20:09:51.548Z,22.04
2022-08-26T20:14:59.054Z,22.02
2022-08-26T20:20:05.812Z,21.97
2022-08-26T20:25:13.157Z,21.92
2022-08-26T20:30:20.075Z,21.87
2022-08-26T20:35:27.475Z,21.84
